createdAt,value
2018-01-08T00:01:28.129Z,-0.80
2018-01-08T00:03:57.639Z,-0.90
2018-01-08T00:06:27.409Z,-0.90
2018-01-08T00:08:57.139Z,-0.90
2018-01-08T00:11:27.678Z,-0.90
2018-01-08T00:13:57.410Z,-0.90
2018-01-08T00:16:27.179Z,-0.90
2018-01-08T00:18:57.665Z,-1.00
2018-01-08T00:21:27.428Z,-1.00
2018-01-08T00:23:57.922Z,-1.00
2018-01-08T00:26:27.686Z,-1.00
2018-01-08T00:28:57.446Z,-1.00
2018-01-08T00:31:27.177Z,-1.00
2018-01-08T00:33:56.933Z,-1.00
2018-01-08T00:36:26.697Z,-1.00
2018-01-08T00:38:56.157Z,-1.00
2018-01-08T00:41:25.923Z,-1.00
2018-01-08T00:43:56.412Z,-1.10
2018-01-08T00:46:26.173Z,-1.10
2018-01-08T00:48:55.924Z,-1.10
2018-01-08T00:51:25.693Z,-1.10
2018-01-08T00:53:56.180Z,-1.10
2018-01-08T00:56:25.949Z,-1.10
2018-01-08T00:58:55.682Z,-1.10
2018-01-08T01:01:25.457Z,-1.10
2018-01-08T01:03:54.923Z,-1.10
2018-01-08T01:06:24.682Z,-1.10
2018-01-08T01:08:54.606Z,-1.20
2018-01-08T01:11:24.329Z,-1.20
2018-01-08T01:13:54.091Z,-1.20
2018-01-08T01:16:23.813Z,-1.20
2018-01-08T01:18:54.616Z,-1.20
2018-01-08T01:21:24.394Z,-1.30
2018-01-08T01:23:54.133Z,-1.20
2018-01-08T01:26:23.890Z,-1.30
2018-01-08T01:28:54.383Z,-1.30
2018-01-08T01:31:24.139Z,-1.30
2018-01-08T01:33:53.911Z,-1.30
2018-01-08T01:36:23.635Z,-1.30
2018-01-08T01:38:53.419Z,-1.30
2018-01-08T01:41:22.913Z,-1.40
2018-01-08T01:43:52.678Z,-1.40
2018-01-08T01:46:23.211Z,-1.40
2018-01-08T01:48:58.930Z,-1.40
2018-01-08T01:51:29.326Z,-1.40
2018-01-08T01:53:59.097Z,-1.40
2018-01-08T01:56:29.625Z,-1.40
2018-01-08T01:59:00.178Z,-1.40
2018-01-08T02:01:29.914Z,-1.50
2018-01-08T02:03:59.672Z,-1.40
2018-01-08T02:06:29.433Z,-1.40
2018-01-08T02:08:59.174Z,-1.50
2018-01-08T02:11:30.433Z,-1.50
2018-01-08T02:14:00.170Z,-1.50
2018-01-08T02:16:29.934Z,-1.50
2018-01-08T02:18:59.649Z,-1.50
2018-01-08T02:21:29.436Z,-1.50
2018-01-08T02:23:59.171Z,-1.50
2018-01-08T02:26:28.936Z,-1.50
2018-01-08T02:28:58.681Z,-1.60
2018-01-08T02:31:28.445Z,-1.60
2018-01-08T02:33:59.008Z,-1.60
2018-01-08T02:36:28.766Z,-1.60
2018-01-08T02:38:59.346Z,-1.60
2018-01-08T02:41:29.082Z,-1.70
2018-01-08T02:43:58.840Z,-1.60
2018-01-08T02:46:28.578Z,-1.70
2018-01-08T02:48:58.325Z,-1.60
2018-01-08T02:51:28.086Z,-1.60
2018-01-08T02:53:57.839Z,-1.70
2018-01-08T02:56:27.602Z,-1.70
2018-01-08T02:58:57.329Z,-1.70
2018-01-08T03:01:27.088Z,-1.70
2018-01-08T03:03:56.912Z,-1.80
2018-01-08T03:06:26.696Z,-1.70
2018-01-08T03:08:56.451Z,-1.80
2018-01-08T03:11:27.009Z,-1.80
2018-01-08T03:13:56.472Z,-1.80
2018-01-08T03:16:27.015Z,-1.90
2018-01-08T03:18:57.539Z,-1.90
2018-01-08T03:21:28.053Z,-1.80
2018-01-08T03:23:57.821Z,-1.90
2018-01-08T03:26:27.563Z,-1.80
2018-01-08T03:28:56.990Z,-1.80
2018-01-08T03:31:27.502Z,-1.80
2018-01-08T03:33:57.282Z,-1.90
2018-01-08T03:36:27.041Z,-1.90
2018-01-08T03:38:56.817Z,-1.90
2018-01-08T03:41:26.549Z,-1.90
2018-01-08T03:43:56.341Z,-1.80
2018-01-08T03:46:26.083Z,-1.80
2018-01-08T03:48:55.850Z,-1.80
2018-01-08T03:51:25.599Z,-1.80
2018-01-08T03:53:55.478Z,-1.80
2018-01-08T03:56:25.220Z,-1.90
2018-01-08T03:58:54.694Z,-1.90
2018-01-08T04:01:24.484Z,-1.90
2018-01-08T04:03:54.210Z,-1.90
2018-01-08T04:06:23.998Z,-2.00
2018-01-08T04:08:53.755Z,-2.00
2018-01-08T04:11:23.553Z,-2.00
2018-01-08T04:13:53.293Z,-2.10
2018-01-08T04:16:23.103Z,-2.10
2018-01-08T04:18:52.842Z,-2.10
2018-01-08T04:21:22.634Z,-2.10
2018-01-08T04:23:52.396Z,-2.10
2018-01-08T04:26:21.974Z,-2.10
2018-01-08T04:28:52.512Z,-2.20
2018-01-08T04:31:22.261Z,-2.10
2018-01-08T04:33:52.022Z,-2.20
2018-01-08T04:36:22.561Z,-2.20
2018-01-08T04:38:53.085Z,-2.20
2018-01-08T04:41:22.565Z,-2.20
2018-01-08T04:43:52.318Z,-2.20
2018-01-08T04:46:22.051Z,-2.20
2018-01-08T04:48:51.815Z,-2.20
2018-01-08T04:51:22.310Z,-2.20
2018-01-08T04:53:52.080Z,-2.30
2018-01-08T04:56:21.829Z,-2.30
2018-01-08T04:58:51.646Z,-2.30
2018-01-08T05:01:21.365Z,-2.30
2018-01-08T05:03:51.118Z,-2.30
2018-01-08T05:06:20.847Z,-2.30
2018-01-08T05:08:50.645Z,-2.20
2018-01-08T05:11:21.130Z,-2.30
2018-01-08T05:13:50.918Z,-2.30
2018-01-08T05:16:20.321Z,-2.30
2018-01-08T05:18:50.078Z,-2.20
2018-01-08T05:21:20.577Z,-2.20
2018-01-08T05:23:50.356Z,-2.20
2018-01-08T05:26:20.102Z,-2.20
2018-01-08T05:28:49.976Z,-2.20
2018-01-08T05:31:19.712Z,-2.30
2018-01-08T05:33:49.475Z,-2.30
2018-01-08T05:36:20.010Z,-2.30
2018-01-08T05:38:50.505Z,-2.30
2018-01-08T05:41:20.297Z,-2.30
2018-01-08T05:43:50.053Z,-2.30
2018-01-08T05:46:19.824Z,-2.30
2018-01-08T05:48:49.599Z,-2.40
2018-01-08T05:51:19.348Z,-2.40
2018-01-08T05:53:49.110Z,-2.40
2018-01-08T05:56:19.732Z,-2.40
2018-01-08T05:58:50.256Z,-2.40
2018-01-08T06:01:20.778Z,-2.40
2018-01-08T06:03:51.269Z,-2.40
2018-01-08T06:06:21.050Z,-2.40
2018-01-08T06:08:50.780Z,-2.40
2018-01-08T06:11:20.567Z,-2.50
2018-01-08T06:13:51.049Z,-2.50
2018-01-08T06:16:20.827Z,-2.50
2018-01-08T06:18:50.573Z,-2.50
2018-01-08T06:21:20.443Z,-2.50
2018-01-08T06:23:50.195Z,-2.50
2018-01-08T06:26:20.021Z,-2.60
2018-01-08T06:28:49.774Z,-2.60
2018-01-08T06:31:19.534Z,-2.60
2018-01-08T06:33:49.306Z,-2.60
2018-01-08T06:36:19.066Z,-2.60
2018-01-08T06:38:48.847Z,-2.70
2018-01-08T06:41:18.611Z,-2.70
2018-01-08T06:43:49.249Z,-2.70
2018-01-08T06:46:19.119Z,-2.70
2018-01-08T06:48:48.877Z,-2.70
2018-01-08T06:51:19.568Z,-2.70
2018-01-08T06:53:49.357Z,-2.80
2018-01-08T06:56:19.198Z,-2.70
2018-01-08T06:58:48.940Z,-2.70
2018-01-08T07:01:20.596Z,-2.80
2018-01-08T07:03:50.327Z,-2.80
2018-01-08T07:06:20.334Z,-2.80
2018-01-08T07:08:50.855Z,-2.90
2018-01-08T07:11:20.650Z,-2.90
2018-01-08T07:13:50.243Z,-2.90
2018-01-08T07:16:20.007Z,-2.90
2018-01-08T07:18:50.575Z,-2.90
2018-01-08T07:21:20.339Z,-2.90
2018-01-08T07:23:50.130Z,-2.90
2018-01-08T07:26:19.578Z,-2.90
2018-01-08T07:28:49.368Z,-3.00
2018-01-08T07:31:19.909Z,-3.00
2018-01-08T07:33:50.527Z,-3.00
2018-01-08T07:36:20.323Z,-3.00
2018-01-08T07:38:50.062Z,-3.00
2018-01-08T07:41:20.608Z,-3.00
2018-01-08T07:43:50.385Z,-3.00
2018-01-08T07:46:20.161Z,-3.00
2018-01-08T07:48:49.904Z,-3.00
2018-01-08T07:51:19.687Z,-3.00
2018-01-08T07:53:49.435Z,-3.00
2018-01-08T07:56:19.313Z,-3.00
2018-01-08T07:58:49.058Z,-3.00
2018-01-08T08:01:18.868Z,-2.90
2018-01-08T08:03:48.656Z,-3.00
2018-01-08T08:06:21.549Z,-3.00
2018-01-08T08:08:51.443Z,-2.90
2018-01-08T08:11:21.397Z,-3.00
2018-01-08T08:13:51.175Z,-2.90
2018-01-08T08:16:20.939Z,-2.80
2018-01-08T08:18:50.717Z,-2.80
2018-01-08T08:21:20.466Z,-2.60
2018-01-08T08:23:50.265Z,-2.50
2018-01-08T08:26:20.005Z,-2.50
2018-01-08T08:28:49.784Z,-2.40
2018-01-08T08:31:19.510Z,-2.30
2018-01-08T08:33:50.073Z,-2.20
2018-01-08T08:36:19.870Z,-2.10
2018-01-08T08:38:49.640Z,-2.10
2018-01-08T08:41:19.425Z,-2.10
2018-01-08T08:43:49.209Z,-2.10
2018-01-08T08:46:18.999Z,-1.90
2018-01-08T08:48:49.517Z,-1.70
2018-01-08T08:51:19.359Z,-1.70
2018-01-08T08:53:49.103Z,-1.60
2018-01-08T08:56:18.894Z,-1.40
2018-01-08T08:58:48.705Z,-1.20
2018-01-08T09:01:19.412Z,-1.00
2018-01-08T09:03:49.150Z,-1.00
2018-01-08T09:06:18.948Z,-0.90
2018-01-08T09:08:50.639Z,-0.50
2018-01-08T09:11:20.453Z,-0.50
2018-01-08T09:13:50.200Z,-0.30
2018-01-08T09:16:19.926Z,-0.30
2018-01-08T09:18:50.458Z,0.00
2018-01-08T09:21:20.312Z,-0.10
2018-01-08T09:23:50.072Z,0.00
2018-01-08T09:26:20.618Z,0.20
2018-01-08T09:28:50.342Z,0.20
2018-01-08T09:31:20.103Z,0.40
2018-01-08T09:33:49.831Z,0.60
2018-01-08T09:36:19.634Z,0.70
2018-01-08T09:38:49.351Z,0.80
2018-01-08T09:41:19.163Z,0.80
2018-01-08T09:43:48.920Z,0.90
2018-01-08T09:46:18.688Z,1.00
2018-01-08T09:48:48.473Z,1.20
2018-01-08T09:51:18.213Z,1.20
2018-01-08T09:53:47.993Z,1.30
2018-01-08T09:56:17.714Z,1.30
2018-01-08T09:58:47.476Z,1.50
2018-01-08T10:01:17.191Z,1.50
2018-01-08T10:03:58.208Z,1.50
2018-01-08T10:06:45.618Z,1.70
2018-01-08T10:09:32.192Z,1.70
2018-01-08T10:12:19.048Z,1.80
2018-01-08T10:15:06.536Z,2.00
2018-01-08T10:17:53.270Z,2.00
2018-01-08T10:20:28.856Z,2.10
2018-01-08T10:22:59.097Z,2.40
2018-01-08T10:25:29.632Z,2.50
2018-01-08T10:28:00.135Z,2.80
2018-01-08T10:30:29.245Z,2.70
2018-01-08T10:32:58.329Z,2.90
2018-01-08T10:35:28.041Z,3.40
2018-01-08T10:37:57.130Z,3.50
2018-01-08T10:40:26.569Z,3.30
2018-01-08T10:43:02.511Z,3.40
2018-01-08T10:45:37.368Z,3.40
2018-01-08T10:48:12.183Z,3.40
2018-01-08T10:50:48.225Z,3.60
2018-01-08T10:53:27.725Z,3.60
2018-01-08T10:55:57.435Z,4.00
2018-01-08T10:58:27.227Z,4.30
2018-01-08T11:01:02.472Z,4.30
2018-01-08T11:03:37.756Z,4.10
2018-01-08T11:06:15.145Z,4.30
2018-01-08T11:08:44.933Z,4.30
2018-01-08T11:11:14.697Z,4.40
2018-01-08T11:13:45.178Z,3.90
2018-01-08T11:16:14.943Z,3.90
2018-01-08T11:18:45.448Z,3.70
2018-01-08T11:21:15.195Z,3.70
2018-01-08T11:23:44.955Z,4.00
2018-01-08T11:26:15.561Z,4.10
2018-01-08T11:28:44.941Z,4.40
2018-01-08T11:31:15.151Z,4.50
2018-01-08T11:33:44.960Z,4.40
2018-01-08T11:36:14.896Z,4.20
2018-01-08T11:38:44.038Z,4.20
2018-01-08T11:41:12.802Z,4.00
2018-01-08T11:43:41.889Z,3.90
2018-01-08T11:46:11.279Z,4.00
2018-01-08T11:48:40.362Z,4.10
2018-01-08T11:51:10.621Z,4.50
2018-01-08T11:53:39.851Z,4.50
2018-01-08T11:56:09.255Z,4.70
2018-01-08T11:58:38.954Z,5.30
2018-01-08T12:01:12.169Z,5.60
2018-01-08T12:03:42.055Z,5.50
2018-01-08T12:06:11.151Z,5.80
2018-01-08T12:08:40.472Z,6.40
2018-01-08T12:11:10.788Z,6.70
2018-01-08T12:13:41.648Z,7.00
2018-01-08T12:16:12.059Z,7.50
2018-01-08T12:18:41.590Z,7.30
2018-01-08T12:21:12.090Z,7.40
2018-01-08T12:23:41.793Z,7.40
2018-01-08T12:26:11.542Z,7.40
2018-01-08T12:28:42.083Z,9.00
2018-01-08T12:31:12.566Z,9.70
2018-01-08T12:33:42.584Z,9.60
2018-01-08T12:36:12.320Z,10.20
2018-01-08T12:38:42.074Z,10.10
2018-01-08T12:41:11.822Z,10.10
2018-01-08T12:43:41.580Z,10.40
2018-01-08T12:46:11.312Z,10.80
2018-01-08T12:48:41.126Z,11.10
2018-01-08T12:51:10.851Z,10.20
2018-01-08T12:53:40.643Z,9.20
2018-01-08T12:56:10.386Z,9.30
2018-01-08T12:58:40.090Z,9.00
2018-01-08T13:01:09.193Z,8.50
2018-01-08T13:03:38.327Z,8.70
2018-01-08T13:06:08.509Z,9.10
2018-01-08T13:08:38.166Z,9.10
2018-01-08T13:11:07.619Z,8.60
2018-01-08T13:13:37.390Z,8.00
2018-01-08T13:16:07.141Z,7.10
2018-01-08T13:18:36.575Z,6.60
2018-01-08T13:21:07.093Z,5.80
2018-01-08T13:23:38.350Z,5.50
2018-01-08T13:26:08.841Z,5.50
2018-01-08T13:28:38.589Z,5.50
2018-01-08T13:31:09.101Z,5.80
2018-01-08T13:33:38.491Z,5.80
2018-01-08T13:36:08.263Z,5.70
2018-01-08T13:38:37.978Z,5.10
2018-01-08T13:41:07.756Z,4.60
2018-01-08T13:43:36.831Z,4.50
2018-01-08T13:46:06.543Z,4.30
2018-01-08T13:48:35.653Z,4.20
2018-01-08T13:51:05.197Z,4.10
2018-01-08T13:53:34.546Z,4.10
2018-01-08T13:56:03.310Z,4.00
2018-01-08T13:58:32.093Z,4.00
2018-01-08T14:01:00.998Z,3.80
2018-01-08T14:03:31.289Z,3.50
2018-01-08T14:06:00.131Z,3.50
2018-01-08T14:08:28.890Z,3.50
2018-01-08T14:10:59.225Z,3.20
2018-01-08T14:13:28.014Z,3.10
2018-01-08T14:15:58.233Z,2.80
2018-01-08T14:18:27.969Z,2.80
2018-01-08T14:20:57.725Z,2.60
2018-01-08T14:23:27.482Z,2.40
2018-01-08T14:25:56.962Z,2.30
2018-01-08T14:28:26.696Z,2.20
2018-01-08T14:30:56.437Z,2.10
2018-01-08T14:33:25.826Z,2.00
2018-01-08T14:35:55.685Z,1.90
2018-01-08T14:38:26.198Z,1.80
2018-01-08T14:40:56.717Z,1.80
2018-01-08T14:43:27.249Z,1.70
2018-01-08T14:45:56.296Z,1.70
2018-01-08T14:48:25.777Z,1.60
2018-01-08T14:50:55.495Z,1.60
2018-01-08T14:53:24.970Z,1.50
2018-01-08T14:55:55.526Z,1.50
2018-01-08T14:58:25.222Z,1.50
2018-01-08T15:00:54.347Z,1.50
2018-01-08T15:03:23.649Z,1.40
2018-01-08T15:05:53.370Z,1.40
2018-01-08T15:08:23.167Z,1.30
2018-01-08T15:10:52.561Z,1.30
2018-01-08T15:13:21.645Z,1.20
2018-01-08T15:15:51.042Z,1.20
2018-01-08T15:18:21.575Z,1.10
2018-01-08T15:20:51.285Z,1.10
2018-01-08T15:23:21.049Z,1.00
2018-01-08T15:25:50.153Z,0.90
2018-01-08T15:28:20.441Z,0.80
2018-01-08T15:30:50.192Z,0.80
2018-01-08T15:33:20.342Z,0.80
2018-01-08T15:35:50.132Z,0.80
2018-01-08T15:38:19.889Z,0.70
2018-01-08T15:40:50.421Z,0.70
2018-01-08T15:43:20.279Z,0.70
2018-01-08T15:45:49.998Z,0.70
2018-01-08T15:48:19.775Z,0.70
2018-01-08T15:50:49.489Z,0.60
2018-01-08T15:53:19.238Z,0.60
2018-01-08T15:55:49.065Z,0.50
2018-01-08T15:58:19.604Z,0.50
2018-01-08T16:00:49.884Z,0.50
2018-01-08T16:03:19.648Z,0.50
2018-01-08T16:05:49.364Z,0.50
2018-01-08T16:08:19.165Z,0.40
2018-01-08T16:10:48.902Z,0.40
2018-01-08T16:13:18.709Z,0.40
2018-01-08T16:15:48.480Z,0.40
2018-01-08T16:18:19.032Z,0.30
2018-01-08T16:20:48.782Z,0.30
2018-01-08T16:23:18.547Z,0.30
2018-01-08T16:25:48.329Z,0.30
2018-01-08T16:28:18.263Z,0.20
2018-01-08T16:30:48.781Z,0.20
2018-01-08T16:33:19.339Z,0.20
2018-01-08T16:35:49.101Z,0.20
2018-01-08T16:38:19.080Z,0.10
2018-01-08T16:40:48.841Z,0.10
2018-01-08T16:43:18.594Z,0.10
2018-01-08T16:45:48.354Z,0.20
2018-01-08T16:48:18.090Z,0.10
2018-01-08T16:50:48.649Z,0.10
2018-01-08T16:53:18.361Z,0.00
2018-01-08T16:55:48.140Z,0.00
2018-01-08T16:58:18.642Z,0.00
2018-01-08T17:00:48.410Z,-0.10
2018-01-08T17:03:18.196Z,-0.10
2018-01-08T17:05:47.668Z,-0.10
2018-01-08T17:08:17.439Z,-0.10
2018-01-08T17:10:47.190Z,0.00
2018-01-08T17:13:16.954Z,0.00
2018-01-08T17:15:46.405Z,0.00
2018-01-08T17:18:16.166Z,0.00
2018-01-08T17:20:45.983Z,0.00
2018-01-08T17:23:15.740Z,-0.10
2018-01-08T17:25:45.557Z,-0.10
2018-01-08T17:28:14.959Z,-0.10
2018-01-08T17:30:44.717Z,-0.10
2018-01-08T17:33:14.471Z,-0.20
2018-01-08T17:35:44.246Z,-0.20
2018-01-08T17:38:14.025Z,-0.20
2018-01-08T17:40:44.533Z,-0.20
2018-01-08T17:43:14.304Z,-0.20
2018-01-08T17:45:44.094Z,-0.20
2018-01-08T17:48:15.199Z,-0.30
2018-01-08T17:50:44.968Z,-0.30
2018-01-08T17:53:15.463Z,-0.30
2018-01-08T17:55:45.227Z,-0.30
2018-01-08T17:58:14.997Z,-0.30
2018-01-08T18:00:45.530Z,-0.30
2018-01-08T18:03:16.107Z,-0.30
2018-01-08T18:05:45.878Z,-0.30
2018-01-08T18:08:16.403Z,-0.40
2018-01-08T18:10:46.935Z,-0.40
2018-01-08T18:13:17.506Z,-0.40
2018-01-08T18:15:47.242Z,-0.40
2018-01-08T18:18:17.040Z,-0.30
2018-01-08T18:20:46.774Z,-0.40
2018-01-08T18:23:16.595Z,-0.40
2018-01-08T18:25:46.373Z,-0.40
2018-01-08T18:28:15.961Z,-0.40
2018-01-08T18:30:45.708Z,-0.40
2018-01-08T18:33:15.516Z,-0.50
2018-01-08T18:35:45.285Z,-0.50
2018-01-08T18:38:15.017Z,-0.50
2018-01-08T18:40:44.786Z,-0.50
2018-01-08T18:43:14.578Z,-0.50
2018-01-08T18:45:44.384Z,-0.60
2018-01-08T18:48:14.102Z,-0.60
2018-01-08T18:50:43.903Z,-0.60
2018-01-08T18:53:13.692Z,-0.60
2018-01-08T18:55:43.449Z,-0.60
2018-01-08T18:58:13.250Z,-0.60
2018-01-08T19:00:44.009Z,-0.60
2018-01-08T19:03:14.532Z,-0.60
2018-01-08T19:05:45.058Z,-0.60
2018-01-08T19:08:15.627Z,-0.60
2018-01-08T19:10:45.402Z,-0.60
2018-01-08T19:13:15.228Z,-0.60
2018-01-08T19:15:45.826Z,-0.70
2018-01-08T19:18:15.673Z,-0.70
2018-01-08T19:20:46.233Z,-0.70
2018-01-08T19:23:16.077Z,-0.70
2018-01-08T19:25:46.019Z,-0.70
2018-01-08T19:28:16.601Z,-0.70
2018-01-08T19:30:46.601Z,-0.70
2018-01-08T19:33:16.056Z,-0.70
2018-01-08T19:35:45.895Z,-0.70
2018-01-08T19:38:16.491Z,-0.70
2018-01-08T19:40:46.285Z,-0.70
2018-01-08T19:43:17.070Z,-0.80
2018-01-08T19:45:47.646Z,-0.80
2018-01-08T19:48:17.512Z,-0.80
2018-01-08T19:50:48.123Z,-0.80
2018-01-08T19:53:19.413Z,-0.80
2018-01-08T19:55:49.248Z,-0.80
2018-01-08T19:58:19.030Z,-0.80
2018-01-08T20:00:48.836Z,-0.80
2018-01-08T20:03:18.688Z,-0.80
2018-01-08T20:05:48.739Z,-0.80
2018-01-08T20:08:20.060Z,-0.90
2018-01-08T20:10:49.895Z,-0.90
2018-01-08T20:13:19.681Z,-0.90
2018-01-08T20:15:49.528Z,-0.90
2018-01-08T20:18:19.310Z,-0.90
2018-01-08T20:20:49.207Z,-0.90
2018-01-08T20:23:19.262Z,-0.90
2018-01-08T20:25:49.057Z,-0.80
2018-01-08T20:28:19.044Z,-0.90
2018-01-08T20:30:48.959Z,-0.90
2018-01-08T20:33:18.788Z,-0.90
2018-01-08T20:35:48.657Z,-0.90
2018-01-08T20:38:19.264Z,-0.90
2018-01-08T20:40:49.956Z,-0.80
2018-01-08T20:43:20.178Z,-0.90
2018-01-08T20:45:50.060Z,-0.80
2018-01-08T20:48:19.877Z,-0.80
2018-01-08T20:50:50.447Z,-0.80
2018-01-08T20:53:20.327Z,-0.90
2018-01-08T20:55:50.880Z,-0.90
2018-01-08T20:58:20.720Z,-0.90
2018-01-08T21:00:50.463Z,-0.90
2018-01-08T21:03:20.228Z,-0.90
2018-01-08T21:05:50.027Z,-1.00
2018-01-08T21:08:20.427Z,-1.00
2018-01-08T21:10:50.236Z,-1.00
2018-01-08T21:13:20.023Z,-1.10
2018-01-08T21:15:49.767Z,-1.00
2018-01-08T21:18:20.409Z,-0.90
2018-01-08T21:20:50.962Z,-0.90
2018-01-08T21:23:20.747Z,-0.90
2018-01-08T21:25:51.276Z,-1.00
2018-01-08T21:28:21.803Z,-1.00
2018-01-08T21:30:52.304Z,-1.00
2018-01-08T21:33:22.111Z,-1.00
2018-01-08T21:35:51.886Z,-1.00
2018-01-08T21:38:21.697Z,-0.90
2018-01-08T21:40:51.473Z,-0.90
2018-01-08T21:43:21.991Z,-0.90
2018-01-08T21:45:51.783Z,-0.90
2018-01-08T21:48:21.598Z,-0.90
2018-01-08T21:50:51.370Z,-0.90
2018-01-08T21:53:21.132Z,-1.00
2018-01-08T21:55:50.887Z,-1.10
2018-01-08T21:58:20.658Z,-1.10
2018-01-08T22:00:50.410Z,-1.10
2018-01-08T22:03:20.190Z,-1.20
2018-01-08T22:05:50.698Z,-1.20
2018-01-08T22:08:20.526Z,-1.30
2018-01-08T22:10:50.291Z,-1.30
2018-01-08T22:13:20.010Z,-1.30
2018-01-08T22:15:49.795Z,-1.30
2018-01-08T22:18:19.544Z,-1.30
2018-01-08T22:20:49.342Z,-1.30
2018-01-08T22:23:19.159Z,-1.30
2018-01-08T22:25:48.905Z,-1.30
2018-01-08T22:28:20.256Z,-1.30
2018-01-08T22:30:50.669Z,-1.30
2018-01-08T22:33:20.454Z,-1.30
2018-01-08T22:35:50.206Z,-1.30
2018-01-08T22:38:21.648Z,-1.30
2018-01-08T22:40:51.585Z,-1.30
2018-01-08T22:43:22.133Z,-1.30
2018-01-08T22:45:51.877Z,-1.30
2018-01-08T22:48:21.683Z,-1.30
2018-01-08T22:50:51.503Z,-1.30
2018-01-08T22:53:23.298Z,-1.30
2018-01-08T22:55:53.086Z,-1.30
2018-01-08T22:58:24.175Z,-1.30
2018-01-08T23:00:54.073Z,-1.30
2018-01-08T23:03:25.343Z,-1.30
2018-01-08T23:05:55.871Z,-1.30
2018-01-08T23:08:25.794Z,-1.30
2018-01-08T23:11:00.170Z,-1.30
2018-01-08T23:13:30.714Z,-1.20
2018-01-08T23:16:02.011Z,-1.30
2018-01-08T23:18:31.757Z,-1.30
2018-01-08T23:21:01.561Z,-1.30
2018-01-08T23:23:31.283Z,-1.30
2018-01-08T23:26:01.047Z,-1.40
2018-01-08T23:28:30.801Z,-1.40
2018-01-08T23:31:00.580Z,-1.40
2018-01-08T23:33:30.346Z,-1.40
2018-01-08T23:36:00.107Z,-1.40
2018-01-08T23:38:29.886Z,-1.40
2018-01-08T23:41:00.422Z,-1.30
2018-01-08T23:43:30.951Z,-1.30
2018-01-08T23:46:01.510Z,-1.30
2018-01-08T23:48:31.766Z,-1.30
2018-01-08T23:51:01.563Z,-1.30
2018-01-08T23:53:31.344Z,-1.30
2018-01-08T23:56:01.095Z,-1.30
2018-01-08T23:58:31.098Z,-1.30
